Northeast Philadelphia Airport
KPNE : now visible

Airfield :











YOU CAN JOIN US ON...

 
LOGIN :

Register | Disclaimer

   EN    FR    IT 

 









Legend :    VFR   Marginal VFR   IFR   Intensive IFR   Very Intensive IFR
Visi :
Ceiling :
>= 8 km
>= 3000ft
5 to 8 km
1000 to 3000 ft
1500m to 5 km
500 to 1000 ft
800 to 1500m
200 to 500 ft
< 800m
< 200 ft
Symbols :   Thunderstorms  Fog  Heavy snow  Heavy precipitations  Wind > 20 kt






- Airport Elevation : 120 ft


KPNE - Northeast Philadelphia

CURRENT METAR :
  • 271854Z 28011KT 10SM OVC041 08/M02 A2972 RMK AO2 SLP063 T00781017

EXPIRED METARs :
  • 271754Z 29011KT 10SM OVC040 07/M01 A2973 RMK AO2 SLP068 T00721011 10072 20044 58015
  • 271654Z 29011KT 10SM OVC035 07/M01 A2975 RMK AO2 SLP076 T00721011

TAF KPNE
Valid from the 27 at 18:00 until the 28 at 18:00 UTC


271727Z 2718/2818 29010G18KT P6SM BKN035 BKN080
FM272300 29006KT P6SM BKN040
FM280200 31006KT P6SM SCT040
FM281400 32012G20KT P6SM SCT045



MET'MAP, your aeronautical weather chart ! - Copyright ORBIFLY December 2007 - Disclaimer

ORBIFLY MET'MAP TEAM :

Programming & Development : Alexandra Zaïnal
Concept & original design : Baudouin d'Aumeries
Assistance for programming : Marc-Olivier Méhu
Technical & hardware support : Manuel Goepfert

Contact : metmap@orbifly.com




SOURCES & CREDITS :

   NOAA       Earth
Advisory